createdAt,value
2023-04-14T00:01:17.526Z,99492.47
2023-04-14T00:03:45.802Z,99491.51
2023-04-14T00:06:13.847Z,99492.41
2023-04-14T00:08:41.718Z,99491.46
2023-04-14T00:11:09.696Z,99494.64
2023-04-14T00:13:38.082Z,99497.61
2023-04-14T00:16:07.147Z,99495.57
2023-04-14T00:18:34.853Z,99498.66
2023-04-14T00:21:02.849Z,99499.74
2023-04-14T00:23:30.716Z,99498.94
2023-04-14T00:25:58.548Z,99497.84
2023-04-14T00:28:26.447Z,99499.34
2023-04-14T00:30:54.255Z,99499.70
2023-04-14T00:33:22.120Z,99499.04
2023-04-14T00:35:49.901Z,99499.43
2023-04-14T00:38:17.769Z,99496.23
2023-04-14T00:40:45.643Z,99494.20
2023-04-14T00:43:13.468Z,99496.30
2023-04-14T00:45:46.284Z,99495.94
2023-04-14T00:48:15.824Z,99490.93
2023-04-14T00:50:44.152Z,99488.42
2023-04-14T00:53:13.181Z,99487.98
2023-04-14T00:55:41.806Z,99481.90
2023-04-14T00:58:10.552Z,99484.02
2023-04-14T01:00:38.549Z,99481.10
2023-04-14T01:03:07.246Z,99483.66
2023-04-14T01:05:35.449Z,99486.42
2023-04-14T01:08:04.350Z,99485.74
2023-04-14T01:10:41.201Z,99486.59
2023-04-14T01:13:20.996Z,99487.59
2023-04-14T01:15:56.538Z,99490.80
2023-04-14T01:18:53.378Z,99495.20
2023-04-14T01:21:26.336Z,99492.88
2023-04-14T01:24:15.761Z,99496.39
2023-04-14T01:26:45.544Z,99492.90
2023-04-14T01:29:58.183Z,99494.71
2023-04-14T01:32:29.325Z,99494.30
2023-04-14T01:35:03.275Z,99497.37
2023-04-14T01:37:35.649Z,99498.90
2023-04-14T01:40:11.385Z,99500.93
2023-04-14T01:42:46.488Z,99498.82
2023-04-14T01:45:23.794Z,99496.63
2023-04-14T01:47:52.584Z,99496.04
2023-04-14T01:50:22.551Z,99494.39
2023-04-14T01:52:54.287Z,99492.17
2023-04-14T01:55:25.658Z,99491.01
2023-04-14T01:57:57.606Z,99491.44
2023-04-14T02:00:26.624Z,99494.48
2023-04-14T02:02:55.076Z,99493.73
2023-04-14T02:05:24.539Z,99494.94
2023-04-14T02:07:55.011Z,99492.34
2023-04-14T02:10:24.461Z,99495.08
2023-04-14T02:12:57.082Z,99492.02
2023-04-14T02:15:28.672Z,99499.13
2023-04-14T02:17:58.342Z,99501.04
2023-04-14T02:20:28.473Z,99498.63
2023-04-14T02:22:56.798Z,99499.37
2023-04-14T02:25:29.930Z,99493.98
2023-04-14T02:28:02.864Z,99490.83
2023-04-14T02:30:35.363Z,99495.23
2023-04-14T02:33:07.349Z,99494.98
2023-04-14T02:35:46.331Z,99490.29
2023-04-14T02:38:22.268Z,99490.59
2023-04-14T02:40:50.879Z,99491.52
2023-04-14T02:43:24.952Z,99495.48
2023-04-14T02:45:56.218Z,99493.63
2023-04-14T02:48:28.159Z,99490.69
2023-04-14T02:50:59.422Z,99492.91
2023-04-14T02:53:28.732Z,99491.60
2023-04-14T02:56:07.452Z,99488.87
2023-04-14T02:58:38.273Z,99492.14
2023-04-14T03:01:07.098Z,99491.52
2023-04-14T03:03:37.689Z,99493.48
2023-04-14T03:06:07.302Z,99493.15
2023-04-14T03:08:37.450Z,99496.46
2023-04-14T03:11:06.835Z,99497.51
2023-04-14T03:13:35.650Z,99497.51
2023-04-14T03:16:04.911Z,99496.64
2023-04-14T03:18:35.377Z,99494.41
2023-04-14T03:21:05.174Z,99496.76
2023-04-14T03:23:36.222Z,99499.68
2023-04-14T03:26:07.815Z,99498.89
2023-04-14T03:28:39.603Z,99502.30
2023-04-14T03:31:11.323Z,99506.66
2023-04-14T03:33:55.706Z,99506.00
2023-04-14T03:36:26.395Z,99509.81
2023-04-14T03:38:59.902Z,99512.90
2023-04-14T03:41:30.973Z,99515.98
2023-04-14T03:43:59.967Z,99517.23
2023-04-14T03:46:29.271Z,99515.50
2023-04-14T03:48:59.776Z,99516.05
2023-04-14T03:51:32.011Z,99515.40
2023-04-14T03:54:02.570Z,99516.80
2023-04-14T03:56:33.398Z,99517.34
2023-04-14T03:59:02.919Z,99521.80
2023-04-14T04:01:33.198Z,99518.23
2023-04-14T04:04:03.258Z,99519.41
2023-04-14T04:06:33.540Z,99515.74
2023-04-14T04:09:02.797Z,99516.45
2023-04-14T04:11:34.850Z,99513.64
2023-04-14T04:14:07.166Z,99517.22
2023-04-14T04:16:38.530Z,99519.86
2023-04-14T04:19:08.244Z,99523.88
2023-04-14T04:21:41.737Z,99528.48
2023-04-14T04:24:14.791Z,99530.20
2023-04-14T04:26:46.728Z,99531.73
2023-04-14T04:29:17.708Z,99532.23
2023-04-14T04:31:49.813Z,99532.70
2023-04-14T04:34:23.766Z,99536.16
2023-04-14T04:36:55.736Z,99537.08
2023-04-14T04:39:25.761Z,99535.66
2023-04-14T04:42:05.749Z,99533.35
2023-04-14T04:44:37.741Z,99533.20
2023-04-14T04:47:09.808Z,99535.81
2023-04-14T04:49:41.780Z,99535.42
2023-04-14T04:52:12.272Z,99535.08
2023-04-14T04:54:44.755Z,99536.45
2023-04-14T04:57:15.751Z,99533.70
2023-04-14T04:59:47.741Z,99532.13
2023-04-14T05:02:19.951Z,99530.14
2023-04-14T05:04:50.902Z,99529.96
2023-04-14T05:07:22.834Z,99529.74
2023-04-14T05:09:54.808Z,99531.41
2023-04-14T05:12:26.827Z,99527.39
2023-04-14T05:14:58.772Z,99531.43
2023-04-14T05:17:29.904Z,99539.89
2023-04-14T05:20:00.822Z,99538.99
2023-04-14T05:30:04.816Z,99544.22
2023-04-14T05:32:32.655Z,99540.21
2023-04-14T05:35:00.642Z,99542.32
2023-04-14T05:37:30.222Z,99543.59
2023-04-14T05:39:58.688Z,99546.59
2023-04-14T05:42:26.636Z,99550.74
2023-04-14T05:44:54.366Z,99551.23
2023-04-14T05:47:22.249Z,99550.41
2023-04-14T05:49:50.003Z,99548.32
2023-04-14T05:52:18.825Z,99546.09
2023-04-14T05:54:46.589Z,99555.91
2023-04-14T05:57:14.342Z,99553.17
2023-04-14T05:59:42.151Z,99553.84
2023-04-14T06:02:10.071Z,99555.02
2023-04-14T06:04:38.136Z,99558.38
2023-04-14T06:07:05.996Z,99559.80
2023-04-14T06:09:33.721Z,99561.14
2023-04-14T06:12:01.836Z,99564.35
2023-04-14T06:14:29.719Z,99559.41
2023-04-14T06:16:57.932Z,99562.34
2023-04-14T06:19:26.145Z,99563.48
2023-04-14T06:21:53.959Z,99562.30
2023-04-14T06:24:21.819Z,99562.55
2023-04-14T06:26:49.748Z,99561.22
2023-04-14T06:29:18.415Z,99560.64
2023-04-14T06:31:47.149Z,99559.55
2023-04-14T06:34:14.986Z,99559.68
2023-04-14T06:36:42.738Z,99556.76
2023-04-14T06:39:12.796Z,99555.58
2023-04-14T06:41:40.824Z,99558.70
2023-04-14T06:44:09.291Z,99563.14
2023-04-14T06:46:37.109Z,99558.73
2023-04-14T06:49:05.542Z,99557.54
2023-04-14T06:51:34.279Z,99555.36
2023-04-14T06:54:02.798Z,99552.67
2023-04-14T06:56:30.968Z,99546.58
2023-04-14T06:58:58.684Z,99551.10
2023-04-14T07:01:26.456Z,99556.34
2023-04-14T07:03:54.434Z,99553.31
2023-04-14T07:06:22.239Z,99550.37
2023-04-14T07:08:49.986Z,99545.64
2023-04-14T07:11:17.807Z,99543.43
2023-04-14T07:13:45.631Z,99546.22
2023-04-14T07:16:13.510Z,99544.81
2023-04-14T07:18:41.400Z,99544.30
2023-04-14T07:21:09.208Z,99541.11
2023-04-14T07:23:37.666Z,99545.02
2023-04-14T07:26:06.187Z,99542.50
2023-04-14T07:28:34.225Z,99549.40
2023-04-14T07:31:09.140Z,99552.95
2023-04-14T07:33:37.258Z,99548.04
2023-04-14T07:36:05.301Z,99549.48
2023-04-14T07:38:33.321Z,99548.83
2023-04-14T07:41:06.469Z,99548.45
2023-04-14T07:43:37.691Z,99549.86
2023-04-14T07:46:07.778Z,99550.64
2023-04-14T07:48:37.687Z,99551.27
2023-04-14T07:51:07.097Z,99554.05
2023-04-14T07:53:35.153Z,99551.68
2023-04-14T07:56:03.324Z,99546.14
2023-04-14T07:58:31.117Z,99550.76
2023-04-14T08:00:58.841Z,99551.13
2023-04-14T08:03:27.239Z,99546.30
2023-04-14T08:05:55.722Z,99549.26
2023-04-14T08:08:24.673Z,99549.39
2023-04-14T08:10:52.578Z,99544.52
2023-04-14T08:13:20.413Z,99546.98
2023-04-14T08:15:48.986Z,99539.98
2023-04-14T08:18:17.200Z,99544.11
2023-04-14T08:20:45.230Z,99541.42
2023-04-14T08:23:13.178Z,99542.35
2023-04-14T08:25:42.342Z,99537.28
2023-04-14T08:28:10.444Z,99536.24
2023-04-14T08:30:38.490Z,99536.65
2023-04-14T08:33:06.343Z,99537.70
2023-04-14T08:35:42.162Z,99543.75
2023-04-14T08:38:11.270Z,99540.14
2023-04-14T08:40:41.849Z,99532.66
2023-04-14T08:43:13.158Z,99531.89
2023-04-14T08:45:44.603Z,99528.23
2023-04-14T08:48:16.941Z,99525.45
2023-04-14T08:50:56.327Z,99522.17
2023-04-14T08:53:26.580Z,99519.00
2023-04-14T08:55:58.007Z,99517.85
2023-04-14T08:58:26.677Z,99512.25
2023-04-14T09:00:55.938Z,99506.91
2023-04-14T09:03:25.205Z,99512.49
2023-04-14T09:05:53.611Z,99513.34
2023-04-14T09:08:21.854Z,99512.95
2023-04-14T09:10:50.951Z,99518.89
2023-04-14T09:13:21.760Z,99513.49
2023-04-14T09:15:50.171Z,99512.48
2023-04-14T09:18:18.096Z,99513.30
2023-04-14T09:20:48.128Z,99510.20
2023-04-14T09:23:37.451Z,99510.15
2023-04-14T09:26:09.313Z,99508.17
2023-04-14T09:28:37.965Z,99516.22
2023-04-14T09:31:06.483Z,99512.30
2023-04-14T09:33:39.907Z,99506.23
2023-04-14T09:36:18.554Z,99508.98
2023-04-14T09:38:47.318Z,99501.13
2023-04-14T09:41:20.217Z,99508.28
2023-04-14T09:43:49.295Z,99501.28
2023-04-14T09:51:11.640Z,99491.55
2023-04-14T09:53:41.269Z,99490.52
2023-04-14T09:56:11.713Z,99488.88
2023-04-14T09:58:42.235Z,99482.14
2023-04-14T10:01:15.823Z,99480.86
2023-04-14T10:03:46.452Z,99487.45
2023-04-14T10:06:20.738Z,99477.95
2023-04-14T10:08:50.519Z,99481.08
2023-04-14T10:11:23.152Z,99477.42
2023-04-14T10:13:54.280Z,99475.40
2023-04-14T10:16:23.357Z,99478.05
2023-04-14T10:18:53.298Z,99482.06
2023-04-14T10:21:23.189Z,99480.92
2023-04-14T10:23:52.110Z,99483.58
2023-04-14T10:26:19.999Z,99481.52
2023-04-14T10:28:51.064Z,99483.85
2023-04-14T10:31:24.000Z,99481.96
2023-04-14T10:33:52.682Z,99481.80
2023-04-14T10:36:29.252Z,99484.86
2023-04-14T10:39:03.349Z,99477.67
2023-04-14T10:41:43.898Z,99479.66
2023-04-14T10:44:35.620Z,99479.50
2023-04-14T10:47:09.702Z,99477.46
2023-04-14T10:49:39.537Z,99477.98
2023-04-14T10:52:17.022Z,99473.25
2023-04-14T10:55:02.760Z,99477.02
2023-04-14T10:57:30.594Z,99473.77
2023-04-14T11:00:00.042Z,99471.23
2023-04-14T11:02:33.511Z,99464.29
2023-04-14T11:05:11.037Z,99465.23
2023-04-14T11:07:45.826Z,99469.65
2023-04-14T11:10:16.730Z,99467.73
2023-04-14T11:12:46.194Z,99461.69
2023-04-14T11:15:15.739Z,99458.89
2023-04-14T11:17:43.940Z,99455.94
2023-04-14T11:20:16.915Z,99456.57
2023-04-14T11:22:47.030Z,99460.20
2023-04-14T11:25:16.963Z,99456.00
2023-04-14T11:27:47.217Z,99456.83
2023-04-14T11:30:17.655Z,99463.41
2023-04-14T11:32:48.099Z,99460.19
2023-04-14T11:35:16.678Z,99458.30
2023-04-14T11:37:46.178Z,99446.69
2023-04-14T11:40:15.987Z,99444.41
2023-04-14T11:42:52.164Z,99447.69
2023-04-14T11:45:20.954Z,99457.11
2023-04-14T11:47:59.234Z,99457.19
2023-04-14T11:50:30.688Z,99450.50
2023-04-14T11:53:03.172Z,99443.84
2023-04-14T11:55:31.461Z,99441.77
2023-04-14T11:57:59.422Z,99439.46
2023-04-14T12:00:28.130Z,99444.81
2023-04-14T12:02:57.061Z,99445.19
2023-04-14T12:05:30.508Z,99442.52
2023-04-14T12:08:00.468Z,99433.64
2023-04-14T12:10:28.820Z,99429.11
2023-04-14T12:13:08.827Z,99429.66
2023-04-14T12:15:40.802Z,99429.14
2023-04-14T12:18:11.742Z,99427.90
2023-04-14T12:20:47.374Z,99425.17
2023-04-14T12:23:16.176Z,99433.54
2023-04-14T12:25:44.177Z,99426.67
2023-04-14T12:28:25.362Z,99424.67
2023-04-14T12:30:56.685Z,99417.45
2023-04-14T12:33:27.890Z,99416.97
2023-04-14T12:36:12.560Z,99419.08
2023-04-14T12:38:40.488Z,99413.56
2023-04-14T12:41:08.607Z,99407.42
2023-04-14T12:43:38.887Z,99407.79
2023-04-14T12:46:09.999Z,99413.95
2023-04-14T12:48:40.298Z,99401.31
2023-04-14T12:51:13.825Z,99401.41
2023-04-14T12:53:44.253Z,99402.97
2023-04-14T12:56:16.114Z,99398.98
2023-04-14T12:58:48.738Z,99405.14
2023-04-14T13:01:19.071Z,99398.57
2023-04-14T13:03:52.039Z,99405.78
2023-04-14T13:06:22.979Z,99402.12
2023-04-14T13:08:56.516Z,99399.02
2023-04-14T13:11:24.829Z,99398.90
2023-04-14T13:13:53.896Z,99398.94
2023-04-14T13:16:22.673Z,99400.03
2023-04-14T13:18:54.112Z,99396.70
2023-04-14T13:21:21.957Z,99395.45
2023-04-14T13:23:49.875Z,99397.36
2023-04-14T13:26:17.693Z,99393.91
2023-04-14T13:28:46.103Z,99392.30
2023-04-14T13:31:17.753Z,99390.58
2023-04-14T13:33:45.917Z,99394.61
2023-04-14T13:36:14.097Z,99385.98
2023-04-14T13:38:42.170Z,99383.52
2023-04-14T13:41:10.105Z,99381.63
2023-04-14T13:43:38.016Z,99383.92
2023-04-14T13:46:05.862Z,99390.95
2023-04-14T13:48:33.772Z,99389.95
2023-04-14T13:51:02.047Z,99392.96
2023-04-14T13:53:29.841Z,99390.27
2023-04-14T13:55:57.666Z,99387.31
2023-04-14T13:58:26.381Z,99387.98
2023-04-14T14:00:55.446Z,99390.73
2023-04-14T14:03:25.326Z,99383.50
2023-04-14T14:05:53.439Z,99379.81
2023-04-14T14:08:21.392Z,99372.45
2023-04-14T14:10:49.357Z,99368.96
2023-04-14T14:13:18.553Z,99364.79
2023-04-14T14:15:47.870Z,99365.52
2023-04-14T14:18:16.682Z,99370.60
2023-04-14T14:20:44.707Z,99372.45
2023-04-14T14:23:13.067Z,99379.69
2023-04-14T14:25:42.416Z,99377.94
2023-04-14T14:28:11.154Z,99375.78
2023-04-14T14:30:39.273Z,99368.82
2023-04-14T14:33:07.637Z,99373.88
2023-04-14T14:35:35.544Z,99375.31
2023-04-14T14:38:03.378Z,99371.33
2023-04-14T14:40:31.630Z,99365.55
2023-04-14T14:43:00.127Z,99362.59
2023-04-14T14:45:31.008Z,99363.99
2023-04-14T14:47:59.588Z,99369.83
2023-04-14T14:50:27.432Z,99371.39
2023-04-14T14:52:56.993Z,99368.70
2023-04-14T14:55:25.134Z,99370.05
2023-04-14T14:57:53.127Z,99363.23
2023-04-14T15:00:21.195Z,99367.39
2023-04-14T15:02:49.165Z,99372.45
2023-04-14T15:05:17.333Z,99370.66
2023-04-14T15:07:45.325Z,99371.14
2023-04-14T15:10:14.707Z,99362.30
2023-04-14T15:12:42.552Z,99368.80
2023-04-14T15:15:11.098Z,99362.80
2023-04-14T15:17:39.090Z,99361.47
2023-04-14T15:20:08.447Z,99365.23
2023-04-14T15:22:36.577Z,99364.14
2023-04-14T15:25:05.200Z,99363.63
2023-04-14T15:27:33.053Z,99363.84
2023-04-14T15:30:01.088Z,99368.66
2023-04-14T15:32:29.088Z,99366.91
2023-04-14T15:34:57.374Z,99377.60
2023-04-14T15:37:26.529Z,99381.45
2023-04-14T15:39:55.486Z,99375.81
2023-04-14T15:42:23.446Z,99378.58
2023-04-14T15:44:51.552Z,99379.38
2023-04-14T15:47:19.602Z,99374.67
2023-04-14T15:49:49.880Z,99374.45
2023-04-14T15:52:21.027Z,99376.66
2023-04-14T15:54:48.777Z,99374.56
2023-04-14T15:57:16.908Z,99379.86
2023-04-14T15:59:44.689Z,99381.58
2023-04-14T16:02:12.567Z,99385.33
2023-04-14T16:04:40.670Z,99390.62
2023-04-14T16:07:08.862Z,99385.02
2023-04-14T16:09:36.873Z,99393.54
2023-04-14T16:12:04.693Z,99394.66
2023-04-14T16:14:33.804Z,99395.19
2023-04-14T16:17:02.193Z,99396.36
2023-04-14T16:19:30.141Z,99394.58
2023-04-14T16:21:58.059Z,99397.36
2023-04-14T16:24:25.991Z,99404.09
2023-04-14T16:26:53.863Z,99401.65
2023-04-14T16:29:22.347Z,99401.91
2023-04-14T16:31:50.326Z,99407.23
2023-04-14T16:34:20.558Z,99406.87
2023-04-14T16:36:48.401Z,99405.60
2023-04-14T16:39:16.283Z,99406.44
2023-04-14T16:41:45.820Z,99410.40
2023-04-14T16:44:13.940Z,99407.88
2023-04-14T16:46:41.875Z,99404.02
2023-04-14T16:49:10.199Z,99410.53
2023-04-14T16:51:38.574Z,99420.70
2023-04-14T16:54:06.487Z,99417.48
2023-04-14T16:56:36.793Z,99428.04
2023-04-14T16:59:07.269Z,99427.44
2023-04-14T17:01:35.263Z,99428.23
2023-04-14T17:04:04.187Z,99430.03
2023-04-14T17:06:32.592Z,99433.77
2023-04-14T17:09:00.966Z,99430.96
2023-04-14T17:11:28.853Z,99437.15
2023-04-14T17:13:56.687Z,99444.76
2023-04-14T17:16:24.738Z,99442.23
2023-04-14T17:18:53.562Z,99449.98
2023-04-14T17:21:21.387Z,99452.27
2023-04-14T17:23:49.339Z,99451.38
2023-04-14T17:26:17.140Z,99450.37
2023-04-14T17:28:45.989Z,99452.58
2023-04-14T17:31:14.592Z,99453.11
2023-04-14T17:33:47.234Z,99455.84
2023-04-14T17:36:16.693Z,99459.25
2023-04-14T17:38:48.172Z,99461.10
2023-04-14T17:41:16.009Z,99469.30
2023-04-14T17:43:43.901Z,99469.89
2023-04-14T17:46:12.128Z,99470.67
2023-04-14T17:48:40.478Z,99470.55
2023-04-14T17:51:08.435Z,99469.90
2023-04-14T17:53:36.695Z,99473.96
2023-04-14T17:56:06.056Z,99477.85
2023-04-14T17:58:33.879Z,99481.02
2023-04-14T18:01:01.666Z,99479.46
2023-04-14T18:03:29.761Z,99480.65
2023-04-14T18:05:57.621Z,99483.87
2023-04-14T18:08:26.067Z,99486.38
2023-04-14T18:10:54.246Z,99487.30
2023-04-14T18:13:22.201Z,99489.92
2023-04-14T18:15:50.051Z,99491.59
2023-04-14T18:18:17.906Z,99492.06
2023-04-14T18:20:49.076Z,99493.83
2023-04-14T18:23:17.639Z,99496.42
2023-04-14T18:28:16.669Z,99502.67
2023-04-14T18:30:51.930Z,99506.23
2023-04-14T18:33:19.739Z,99509.55
2023-04-14T18:35:55.327Z,99514.63
2023-04-14T18:38:24.833Z,99516.27
2023-04-14T18:40:53.298Z,99519.70
2023-04-14T18:43:21.296Z,99527.98
2023-04-14T18:45:50.274Z,99525.21
2023-04-14T18:48:18.182Z,99524.00
2023-04-14T18:50:46.752Z,99527.48
2023-04-14T18:53:14.936Z,99530.27
2023-04-14T18:55:45.111Z,99528.14
2023-04-14T18:58:13.908Z,99531.80
2023-04-14T19:00:45.252Z,99532.61
2023-04-14T19:03:13.655Z,99535.64
2023-04-14T19:05:41.734Z,99534.14
2023-04-14T19:08:09.639Z,99533.09
2023-04-14T19:10:37.768Z,99532.98
2023-04-14T19:13:05.927Z,99531.47
2023-04-14T19:15:33.971Z,99528.77
2023-04-14T19:18:03.712Z,99527.98
2023-04-14T19:20:32.152Z,99522.95
2023-04-14T19:23:00.443Z,99519.81
2023-04-14T19:25:29.543Z,99518.84
2023-04-14T19:27:58.627Z,99513.70
2023-04-14T19:30:26.433Z,99513.08
2023-04-14T19:32:54.666Z,99513.18
2023-04-14T19:35:26.641Z,99511.89
2023-04-14T19:37:57.097Z,99514.65
2023-04-14T19:40:25.540Z,99510.48
2023-04-14T19:42:55.360Z,99515.64
2023-04-14T19:45:23.559Z,99517.77
2023-04-14T19:47:52.026Z,99517.69
2023-04-14T19:50:22.754Z,99518.23
2023-04-14T19:52:52.164Z,99522.39
2023-04-14T19:55:20.124Z,99518.98
2023-04-14T19:57:48.384Z,99520.77
2023-04-14T20:00:16.980Z,99525.63
2023-04-14T20:02:45.232Z,99518.00
2023-04-14T20:05:13.422Z,99521.27
2023-04-14T20:07:41.490Z,99516.09
2023-04-14T20:10:10.272Z,99523.02
2023-04-14T20:12:38.334Z,99522.12
2023-04-14T20:15:07.312Z,99523.32
2023-04-14T20:17:35.224Z,99514.57
2023-04-14T20:20:06.064Z,99513.77
2023-04-14T20:22:34.360Z,99514.95
2023-04-14T20:25:02.499Z,99509.63
2023-04-14T20:27:31.708Z,99512.59
2023-04-14T20:29:59.730Z,99509.49
2023-04-14T20:32:27.582Z,99509.67
2023-04-14T20:34:55.599Z,99505.67
2023-04-14T20:37:23.879Z,99506.59
2023-04-14T20:39:53.307Z,99509.55
2023-04-14T20:42:21.292Z,99506.57
2023-04-14T20:44:49.268Z,99503.84
2023-04-14T20:47:17.421Z,99507.72
2023-04-14T20:49:45.444Z,99503.21
2023-04-14T20:52:13.208Z,99502.23
2023-04-14T20:54:41.097Z,99499.06
2023-04-14T20:57:09.960Z,99498.32
2023-04-14T20:59:37.870Z,99495.61
2023-04-14T21:02:06.584Z,99497.08
2023-04-14T21:04:36.102Z,99495.84
2023-04-14T21:07:04.867Z,99500.88
2023-04-14T21:09:32.690Z,99502.22
2023-04-14T21:12:14.293Z,99503.64
2023-04-14T21:15:44.577Z,99503.27
2023-04-14T21:17:36.635Z,99504.58
2023-04-14T21:20:06.018Z,99498.09
2023-04-14T21:22:35.302Z,99499.18
2023-04-14T21:25:03.507Z,99499.85
2023-04-14T21:27:31.481Z,99497.06
2023-04-14T21:29:59.556Z,99491.70
2023-04-14T21:32:27.489Z,99493.60
2023-04-14T21:34:55.721Z,99494.82
2023-04-14T21:37:24.177Z,99497.21
2023-04-14T21:39:52.093Z,99494.92
2023-04-14T21:42:19.933Z,99488.52
2023-04-14T21:44:49.424Z,99492.27
2023-04-14T21:47:17.929Z,99494.94
2023-04-14T21:49:46.149Z,99492.26
2023-04-14T21:52:13.994Z,99495.89
2023-04-14T21:54:44.410Z,99494.67
2023-04-14T21:57:12.449Z,99492.77
2023-04-14T21:59:40.254Z,99489.94
2023-04-14T22:02:08.073Z,99492.81
2023-04-14T22:04:37.469Z,99491.52
2023-04-14T22:07:06.608Z,99492.24
2023-04-14T22:09:34.636Z,99492.90
2023-04-14T22:12:03.456Z,99489.45
2023-04-14T22:14:31.430Z,99491.28
2023-04-14T22:17:00.935Z,99489.30
2023-04-14T22:19:29.171Z,99493.81
2023-04-14T22:21:57.060Z,99493.48
2023-04-14T22:24:25.406Z,99489.44
2023-04-14T22:26:54.193Z,99489.06
2023-04-14T22:29:22.021Z,99487.11
2023-04-14T22:31:49.931Z,99484.54
2023-04-14T22:34:17.890Z,99485.45
2023-04-14T22:36:45.801Z,99483.56
2023-04-14T22:39:14.279Z,99480.75
2023-04-14T22:41:42.314Z,99483.69
2023-04-14T22:44:10.160Z,99482.70
2023-04-14T22:46:38.072Z,99486.19
2023-04-14T22:49:06.386Z,99486.27
2023-04-14T22:51:34.353Z,99488.39
2023-04-14T22:54:03.823Z,99487.02
2023-04-14T22:56:31.762Z,99484.55
2023-04-14T22:58:59.911Z,99486.70
2023-04-14T23:01:29.612Z,99487.29
2023-04-14T23:03:57.665Z,99488.80
2023-04-14T23:06:25.941Z,99490.67
2023-04-14T23:08:53.854Z,99488.92
2023-04-14T23:11:22.118Z,99490.91
2023-04-14T23:13:50.429Z,99489.00
2023-04-14T23:16:21.893Z,99488.81
2023-04-14T23:18:52.347Z,99487.27
2023-04-14T23:21:22.377Z,99485.10
2023-04-14T23:23:51.917Z,99482.79
2023-04-14T23:26:21.914Z,99491.03
2023-04-14T23:28:49.836Z,99489.15
2023-04-14T23:31:18.211Z,99488.59
2023-04-14T23:33:48.778Z,99488.98
2023-04-14T23:36:17.514Z,99491.25
2023-04-14T23:38:45.576Z,99494.56
2023-04-14T23:41:13.513Z,99494.13
2023-04-14T23:43:41.519Z,99491.32
2023-04-14T23:46:09.671Z,99497.52
2023-04-14T23:48:38.101Z,99495.27
2023-04-14T23:51:16.265Z,99495.29
2023-04-14T23:53:46.173Z,99491.56
2023-04-14T23:56:13.989Z,99493.83
2023-04-14T23:58:44.021Z,99496.17
